sensor_id;sensor_type;location;lat;lon;timestamp;P1;durP1;ratioP1;P2;durP2;ratioP2
62951;SDS011;52163;52.212;-1.002;2022-08-20T00:00:09;6.20;;;1.60;;
62951;SDS011;52163;52.212;-1.002;2022-08-20T00:02:42;6.10;;;1.70;;
62951;SDS011;52163;52.212;-1.002;2022-08-20T00:05:10;7.00;;;1.60;;
62951;SDS011;52163;52.212;-1.002;2022-08-20T00:07:37;8.60;;;1.90;;
62951;SDS011;52163;52.212;-1.002;2022-08-20T00:10:03;7.80;;;2.00;;
62951;SDS011;52163;52.212;-1.002;2022-08-20T00:12:30;9.60;;;2.70;;
62951;SDS011;52163;52.212;-1.002;2022-08-20T00:14:56;10.80;;;2.40;;
62951;SDS011;52163;52.212;-1.002;2022-08-20T00:17:22;11.50;;;2.20;;
62951;SDS011;52163;52.212;-1.002;2022-08-20T00:19:47;4.60;;;1.80;;
62951;SDS011;52163;52.212;-1.002;2022-08-20T00:22:13;6.50;;;1.80;;
62951;SDS011;52163;52.212;-1.002;2022-08-20T00:24:38;10.30;;;2.00;;
62951;SDS011;52163;52.212;-1.002;2022-08-20T00:27:04;10.50;;;2.10;;
62951;SDS011;52163;52.212;-1.002;2022-08-20T00:29:29;11.70;;;2.10;;
62951;SDS011;52163;52.212;-1.002;2022-08-20T00:31:55;10.80;;;2.10;;
62951;SDS011;52163;52.212;-1.002;2022-08-20T00:34:21;8.20;;;1.80;;
62951;SDS011;52163;52.212;-1.002;2022-08-20T00:36:46;6.50;;;2.10;;
62951;SDS011;52163;52.212;-1.002;2022-08-20T00:39:12;5.90;;;1.80;;
62951;SDS011;52163;52.212;-1.002;2022-08-20T00:41:37;6.70;;;2.40;;
62951;SDS011;52163;52.212;-1.002;2022-08-20T00:44:06;8.60;;;2.20;;
62951;SDS011;52163;52.212;-1.002;2022-08-20T00:46:35;6.60;;;2.60;;
62951;SDS011;52163;52.212;-1.002;2022-08-20T00:49:01;11.50;;;2.60;;
62951;SDS011;52163;52.212;-1.002;2022-08-20T00:51:38;11.60;;;2.20;;
62951;SDS011;52163;52.212;-1.002;2022-08-20T00:54:21;9.40;;;1.90;;
62951;SDS011;52163;52.212;-1.002;2022-08-20T00:57:25;9.40;;;3.50;;
62951;SDS011;52163;52.212;-1.002;2022-08-20T00:59:58;5.60;;;1.90;;
62951;SDS011;52163;52.212;-1.002;2022-08-20T01:02:27;10.50;;;2.20;;
62951;SDS011;52163;52.212;-1.002;2022-08-20T01:04:55;7.60;;;2.40;;
62951;SDS011;52163;52.212;-1.002;2022-08-20T01:07:21;6.30;;;1.90;;
62951;SDS011;52163;52.212;-1.002;2022-08-20T01:09:56;9.60;;;2.30;;
62951;SDS011;52163;52.212;-1.002;2022-08-20T01:12:23;12.00;;;1.90;;
62951;SDS011;52163;52.212;-1.002;2022-08-20T01:14:50;9.30;;;2.10;;
62951;SDS011;52163;52.212;-1.002;2022-08-20T01:17:18;6.10;;;2.70;;
62951;SDS011;52163;52.212;-1.002;2022-08-20T01:19:50;6.20;;;1.60;;
62951;SDS011;52163;52.212;-1.002;2022-08-20T01:22:25;8.20;;;2.00;;
62951;SDS011;52163;52.212;-1.002;2022-08-20T01:25:26;8.70;;;1.90;;
62951;SDS011;52163;52.212;-1.002;2022-08-20T01:27:58;6.50;;;2.30;;
62951;SDS011;52163;52.212;-1.002;2022-08-20T01:30:24;9.40;;;2.20;;
62951;SDS011;52163;52.212;-1.002;2022-08-20T01:32:52;6.80;;;2.40;;
62951;SDS011;52163;52.212;-1.002;2022-08-20T01:35:19;9.80;;;2.80;;
62951;SDS011;52163;52.212;-1.002;2022-08-20T01:37:46;7.70;;;2.40;;
62951;SDS011;52163;52.212;-1.002;2022-08-20T01:40:11;11.40;;;2.80;;
62951;SDS011;52163;52.212;-1.002;2022-08-20T01:42:43;8.60;;;2.50;;
62951;SDS011;52163;52.212;-1.002;2022-08-20T01:45:11;11.00;;;3.20;;
62951;SDS011;52163;52.212;-1.002;2022-08-20T01:47:37;8.80;;;2.20;;
62951;SDS011;52163;52.212;-1.002;2022-08-20T01:50:13;6.90;;;2.20;;
62951;SDS011;52163;52.212;-1.002;2022-08-20T01:52:51;8.80;;;2.50;;
62951;SDS011;52163;52.212;-1.002;2022-08-20T01:55:35;10.70;;;2.80;;
62951;SDS011;52163;52.212;-1.002;2022-08-20T01:58:01;9.40;;;2.50;;
62951;SDS011;52163;52.212;-1.002;2022-08-20T02:00:27;7.80;;;2.40;;
62951;SDS011;52163;52.212;-1.002;2022-08-20T02:02:54;5.20;;;2.30;;
62951;SDS011;52163;52.212;-1.002;2022-08-20T02:05:20;8.20;;;2.30;;
62951;SDS011;52163;52.212;-1.002;2022-08-20T02:07:46;10.20;;;2.40;;
62951;SDS011;52163;52.212;-1.002;2022-08-20T02:10:13;6.40;;;2.20;;
62951;SDS011;52163;52.212;-1.002;2022-08-20T02:12:40;7.60;;;1.90;;
62951;SDS011;52163;52.212;-1.002;2022-08-20T02:15:07;11.10;;;1.90;;
62951;SDS011;52163;52.212;-1.002;2022-08-20T02:17:35;6.10;;;1.80;;
62951;SDS011;52163;52.212;-1.002;2022-08-20T02:20:02;6.00;;;2.20;;
62951;SDS011;52163;52.212;-1.002;2022-08-20T02:22:55;11.60;;;2.50;;
62951;SDS011;52163;52.212;-1.002;2022-08-20T02:25:21;8.80;;;2.40;;
62951;SDS011;52163;52.212;-1.002;2022-08-20T02:27:50;10.60;;;2.60;;
62951;SDS011;52163;52.212;-1.002;2022-08-20T02:30:19;7.60;;;2.30;;
62951;SDS011;52163;52.212;-1.002;2022-08-20T02:32:49;11.60;;;2.50;;
62951;SDS011;52163;52.212;-1.002;2022-08-20T02:35:14;5.70;;;2.10;;
62951;SDS011;52163;52.212;-1.002;2022-08-20T02:37:41;8.10;;;1.90;;
62951;SDS011;52163;52.212;-1.002;2022-08-20T02:40:11;5.40;;;1.80;;
62951;SDS011;52163;52.212;-1.002;2022-08-20T02:42:38;7.00;;;1.90;;
62951;SDS011;52163;52.212;-1.002;2022-08-20T02:45:07;5.40;;;2.10;;
62951;SDS011;52163;52.212;-1.002;2022-08-20T02:47:39;9.70;;;2.70;;
62951;SDS011;52163;52.212;-1.002;2022-08-20T02:50:05;8.10;;;2.30;;
62951;SDS011;52163;52.212;-1.002;2022-08-20T02:52:32;8.30;;;2.60;;
62951;SDS011;52163;52.212;-1.002;2022-08-20T02:54:57;9.90;;;2.80;;
62951;SDS011;52163;52.212;-1.002;2022-08-20T02:57:24;8.70;;;2.30;;
62951;SDS011;52163;52.212;-1.002;2022-08-20T02:59:49;11.30;;;2.30;;
62951;SDS011;52163;52.212;-1.002;2022-08-20T03:02:18;11.90;;;2.40;;
62951;SDS011;52163;52.212;-1.002;2022-08-20T03:04:44;8.10;;;2.20;;
62951;SDS011;52163;52.212;-1.002;2022-08-20T03:07:09;14.10;;;3.00;;
62951;SDS011;52163;52.212;-1.002;2022-08-20T03:09:35;6.90;;;2.40;;
62951;SDS011;52163;52.212;-1.002;2022-08-20T03:12:02;9.20;;;2.30;;
62951;SDS011;52163;52.212;-1.002;2022-08-20T03:14:29;10.30;;;2.50;;
62951;SDS011;52163;52.212;-1.002;2022-08-20T03:16:54;8.10;;;2.70;;
62951;SDS011;52163;52.212;-1.002;2022-08-20T03:19:20;6.70;;;2.90;;
62951;SDS011;52163;52.212;-1.002;2022-08-20T03:21:47;7.70;;;2.30;;
62951;SDS011;52163;52.212;-1.002;2022-08-20T03:24:13;13.00;;;3.00;;
62951;SDS011;52163;52.212;-1.002;2022-08-20T03:26:38;9.00;;;2.20;;
62951;SDS011;52163;52.212;-1.002;2022-08-20T03:29:03;9.70;;;2.20;;
62951;SDS011;52163;52.212;-1.002;2022-08-20T03:31:29;9.40;;;2.40;;
62951;SDS011;52163;52.212;-1.002;2022-08-20T03:33:54;8.70;;;2.20;;
62951;SDS011;52163;52.212;-1.002;2022-08-20T03:36:21;6.10;;;2.60;;
62951;SDS011;52163;52.212;-1.002;2022-08-20T03:38:47;4.90;;;2.40;;
62951;SDS011;52163;52.212;-1.002;2022-08-20T03:41:13;11.90;;;3.00;;
62951;SDS011;52163;52.212;-1.002;2022-08-20T03:43:38;9.00;;;2.60;;
62951;SDS011;52163;52.212;-1.002;2022-08-20T03:46:05;11.90;;;3.00;;
62951;SDS011;52163;52.212;-1.002;2022-08-20T03:48:32;7.90;;;2.70;;
62951;SDS011;52163;52.212;-1.002;2022-08-20T03:50:58;8.20;;;2.10;;
62951;SDS011;52163;52.212;-1.002;2022-08-20T03:53:25;9.00;;;2.20;;
62951;SDS011;52163;52.212;-1.002;2022-08-20T03:55:53;6.40;;;2.20;;
62951;SDS011;52163;52.212;-1.002;2022-08-20T03:58:20;8.40;;;2.80;;
62951;SDS011;52163;52.212;-1.002;2022-08-20T04:00:47;8.20;;;2.10;;
62951;SDS011;52163;52.212;-1.002;2022-08-20T04:03:16;8.60;;;2.40;;
62951;SDS011;52163;52.212;-1.002;2022-08-20T04:05:42;8.50;;;2.30;;
62951;SDS011;52163;52.212;-1.002;2022-08-20T04:08:18;10.20;;;2.70;;
62951;SDS011;52163;52.212;-1.002;2022-08-20T04:10:53;8.50;;;2.40;;
62951;SDS011;52163;52.212;-1.002;2022-08-20T04:13:24;8.60;;;2.40;;
62951;SDS011;52163;52.212;-1.002;2022-08-20T04:15:50;13.10;;;2.50;;
62951;SDS011;52163;52.212;-1.002;2022-08-20T04:18:19;8.50;;;2.30;;
62951;SDS011;52163;52.212;-1.002;2022-08-20T04:20:48;15.20;;;2.90;;
62951;SDS011;52163;52.212;-1.002;2022-08-20T04:23:18;13.80;;;2.80;;
62951;SDS011;52163;52.212;-1.002;2022-08-20T04:25:45;10.10;;;2.50;;
62951;SDS011;52163;52.212;-1.002;2022-08-20T04:28:16;12.00;;;3.00;;
62951;SDS011;52163;52.212;-1.002;2022-08-20T04:33:20;9.40;;;2.40;;
62951;SDS011;52163;52.212;-1.002;2022-08-20T04:35:48;11.90;;;3.10;;
62951;SDS011;52163;52.212;-1.002;2022-08-20T04:38:14;12.20;;;3.10;;
62951;SDS011;52163;52.212;-1.002;2022-08-20T04:40:41;14.80;;;3.20;;
62951;SDS011;52163;52.212;-1.002;2022-08-20T04:43:23;12.20;;;2.60;;
62951;SDS011;52163;52.212;-1.002;2022-08-20T04:45:52;10.10;;;2.60;;
62951;SDS011;52163;52.212;-1.002;2022-08-20T04:48:19;9.90;;;2.70;;
62951;SDS011;52163;52.212;-1.002;2022-08-20T04:50:48;13.70;;;2.80;;
62951;SDS011;52163;52.212;-1.002;2022-08-20T04:53:15;10.10;;;2.70;;
62951;SDS011;52163;52.212;-1.002;2022-08-20T04:55:42;15.40;;;3.00;;
62951;SDS011;52163;52.212;-1.002;2022-08-20T04:58:16;15.30;;;3.50;;
62951;SDS011;52163;52.212;-1.002;2022-08-20T05:00:47;10.60;;;3.20;;
62951;SDS011;52163;52.212;-1.002;2022-08-20T05:03:15;21.50;;;3.50;;
62951;SDS011;52163;52.212;-1.002;2022-08-20T05:05:41;11.00;;;2.10;;
62951;SDS011;52163;52.212;-1.002;2022-08-20T05:08:07;11.80;;;2.60;;
62951;SDS011;52163;52.212;-1.002;2022-08-20T05:10:32;9.70;;;2.20;;
62951;SDS011;52163;52.212;-1.002;2022-08-20T05:13:00;11.40;;;2.80;;
62951;SDS011;52163;52.212;-1.002;2022-08-20T05:15:26;14.30;;;3.80;;
62951;SDS011;52163;52.212;-1.002;2022-08-20T05:17:55;10.80;;;3.00;;
62951;SDS011;52163;52.212;-1.002;2022-08-20T05:20:31;12.50;;;2.40;;
62951;SDS011;52163;52.212;-1.002;2022-08-20T05:22:58;8.40;;;1.90;;
62951;SDS011;52163;52.212;-1.002;2022-08-20T05:25:25;9.90;;;2.50;;
62951;SDS011;52163;52.212;-1.002;2022-08-20T05:28:06;11.70;;;3.40;;
62951;SDS011;52163;52.212;-1.002;2022-08-20T05:30:34;13.40;;;3.10;;
62951;SDS011;52163;52.212;-1.002;2022-08-20T05:33:02;13.50;;;3.00;;
62951;SDS011;52163;52.212;-1.002;2022-08-20T05:35:30;13.50;;;3.30;;
62951;SDS011;52163;52.212;-1.002;2022-08-20T05:37:59;9.40;;;2.30;;
62951;SDS011;52163;52.212;-1.002;2022-08-20T05:40:27;10.50;;;2.40;;
62951;SDS011;52163;52.212;-1.002;2022-08-20T05:42:53;14.40;;;2.90;;
62951;SDS011;52163;52.212;-1.002;2022-08-20T05:45:19;8.40;;;2.70;;
62951;SDS011;52163;52.212;-1.002;2022-08-20T05:47:46;10.80;;;2.90;;
62951;SDS011;52163;52.212;-1.002;2022-08-20T05:50:13;12.70;;;2.90;;
62951;SDS011;52163;52.212;-1.002;2022-08-20T05:52:41;6.60;;;2.00;;
62951;SDS011;52163;52.212;-1.002;2022-08-20T05:55:11;11.90;;;2.70;;
62951;SDS011;52163;52.212;-1.002;2022-08-20T05:57:37;12.70;;;2.40;;
62951;SDS011;52163;52.212;-1.002;2022-08-20T06:00:07;9.50;;;2.70;;
62951;SDS011;52163;52.212;-1.002;2022-08-20T06:02:36;10.40;;;2.30;;
62951;SDS011;52163;52.212;-1.002;2022-08-20T06:05:22;9.00;;;2.40;;
62951;SDS011;52163;52.212;-1.002;2022-08-20T06:07:48;9.90;;;2.80;;
62951;SDS011;52163;52.212;-1.002;2022-08-20T06:10:15;9.50;;;2.80;;
62951;SDS011;52163;52.212;-1.002;2022-08-20T06:12:42;12.20;;;2.70;;
62951;SDS011;52163;52.212;-1.002;2022-08-20T06:15:10;13.20;;;3.10;;
62951;SDS011;52163;52.212;-1.002;2022-08-20T06:17:37;15.00;;;4.00;;
62951;SDS011;52163;52.212;-1.002;2022-08-20T06:20:05;11.00;;;2.70;;
62951;SDS011;52163;52.212;-1.002;2022-08-20T06:22:33;12.30;;;2.80;;
62951;SDS011;52163;52.212;-1.002;2022-08-20T06:24:58;9.60;;;2.60;;
62951;SDS011;52163;52.212;-1.002;2022-08-20T06:27:24;11.10;;;2.80;;
62951;SDS011;52163;52.212;-1.002;2022-08-20T06:29:51;16.20;;;4.80;;
62951;SDS011;52163;52.212;-1.002;2022-08-20T06:32:18;28.30;;;10.80;;
62951;SDS011;52163;52.212;-1.002;2022-08-20T06:34:46;12.50;;;3.10;;
62951;SDS011;52163;52.212;-1.002;2022-08-20T06:37:15;13.00;;;3.00;;
62951;SDS011;52163;52.212;-1.002;2022-08-20T06:39:42;13.80;;;4.70;;
62951;SDS011;52163;52.212;-1.002;2022-08-20T06:42:08;13.50;;;3.80;;
62951;SDS011;52163;52.212;-1.002;2022-08-20T06:44:33;11.10;;;2.90;;
62951;SDS011;52163;52.212;-1.002;2022-08-20T06:47:00;17.10;;;2.80;;
62951;SDS011;52163;52.212;-1.002;2022-08-20T06:49:28;13.70;;;2.20;;
62951;SDS011;52163;52.212;-1.002;2022-08-20T06:51:55;7.30;;;2.10;;
62951;SDS011;52163;52.212;-1.002;2022-08-20T06:54:20;9.50;;;2.30;;
62951;SDS011;52163;52.212;-1.002;2022-08-20T06:56:46;5.00;;;2.20;;
62951;SDS011;52163;52.212;-1.002;2022-08-20T06:59:12;16.60;;;3.00;;
62951;SDS011;52163;52.212;-1.002;2022-08-20T07:01:38;13.90;;;3.00;;
62951;SDS011;52163;52.212;-1.002;2022-08-20T07:04:03;9.70;;;2.30;;
62951;SDS011;52163;52.212;-1.002;2022-08-20T07:06:31;13.20;;;2.20;;
62951;SDS011;52163;52.212;-1.002;2022-08-20T07:08:57;11.00;;;1.90;;
62951;SDS011;52163;52.212;-1.002;2022-08-20T07:11:22;14.00;;;3.10;;
62951;SDS011;52163;52.212;-1.002;2022-08-20T07:13:48;13.20;;;3.00;;
62951;SDS011;52163;52.212;-1.002;2022-08-20T07:16:14;13.40;;;2.30;;
62951;SDS011;52163;52.212;-1.002;2022-08-20T07:18:40;13.00;;;2.80;;
62951;SDS011;52163;52.212;-1.002;2022-08-20T07:21:05;10.30;;;3.00;;
62951;SDS011;52163;52.212;-1.002;2022-08-20T07:23:30;12.30;;;2.60;;
62951;SDS011;52163;52.212;-1.002;2022-08-20T07:25:56;6.60;;;1.90;;
62951;SDS011;52163;52.212;-1.002;2022-08-20T07:28:23;16.50;;;2.70;;
62951;SDS011;52163;52.212;-1.002;2022-08-20T07:30:53;12.80;;;2.70;;
62951;SDS011;52163;52.212;-1.002;2022-08-20T07:33:38;12.40;;;3.20;;
62951;SDS011;52163;52.212;-1.002;2022-08-20T07:36:04;11.90;;;2.60;;
62951;SDS011;52163;52.212;-1.002;2022-08-20T07:38:31;10.50;;;2.80;;
62951;SDS011;52163;52.212;-1.002;2022-08-20T07:41:08;13.40;;;2.40;;
62951;SDS011;52163;52.212;-1.002;2022-08-20T07:43:37;10.00;;;2.60;;
62951;SDS011;52163;52.212;-1.002;2022-08-20T07:46:03;10.60;;;1.90;;
62951;SDS011;52163;52.212;-1.002;2022-08-20T07:48:32;18.40;;;2.50;;
62951;SDS011;52163;52.212;-1.002;2022-08-20T07:50:59;10.50;;;2.60;;
62951;SDS011;52163;52.212;-1.002;2022-08-20T07:53:28;18.50;;;2.90;;
62951;SDS011;52163;52.212;-1.002;2022-08-20T07:55:53;11.70;;;2.80;;
62951;SDS011;52163;52.212;-1.002;2022-08-20T07:58:19;18.20;;;3.20;;
62951;SDS011;52163;52.212;-1.002;2022-08-20T08:00:47;12.00;;;2.70;;
62951;SDS011;52163;52.212;-1.002;2022-08-20T08:03:13;13.60;;;3.60;;
62951;SDS011;52163;52.212;-1.002;2022-08-20T08:05:40;13.10;;;2.80;;
62951;SDS011;52163;52.212;-1.002;2022-08-20T08:08:12;14.00;;;2.90;;
62951;SDS011;52163;52.212;-1.002;2022-08-20T08:10:42;12.40;;;2.80;;
62951;SDS011;52163;52.212;-1.002;2022-08-20T08:13:10;15.20;;;3.00;;
62951;SDS011;52163;52.212;-1.002;2022-08-20T08:15:40;12.00;;;3.40;;
62951;SDS011;52163;52.212;-1.002;2022-08-20T08:20:46;16.90;;;4.10;;
62951;SDS011;52163;52.212;-1.002;2022-08-20T08:23:17;16.80;;;3.30;;
62951;SDS011;52163;52.212;-1.002;2022-08-20T08:25:45;10.30;;;2.90;;
62951;SDS011;52163;52.212;-1.002;2022-08-20T08:28:12;9.30;;;2.50;;
62951;SDS011;52163;52.212;-1.002;2022-08-20T08:30:39;23.10;;;6.50;;
62951;SDS011;52163;52.212;-1.002;2022-08-20T08:33:07;24.20;;;7.90;;
62951;SDS011;52163;52.212;-1.002;2022-08-20T08:36:02;17.90;;;5.60;;
62951;SDS011;52163;52.212;-1.002;2022-08-20T08:38:32;20.60;;;5.00;;
62951;SDS011;52163;52.212;-1.002;2022-08-20T08:41:02;17.80;;;4.70;;
62951;SDS011;52163;52.212;-1.002;2022-08-20T08:43:40;17.70;;;5.90;;
62951;SDS011;52163;52.212;-1.002;2022-08-20T08:46:10;13.10;;;3.40;;
62951;SDS011;52163;52.212;-1.002;2022-08-20T08:48:40;14.80;;;3.70;;
62951;SDS011;52163;52.212;-1.002;2022-08-20T08:51:10;16.30;;;3.50;;
62951;SDS011;52163;52.212;-1.002;2022-08-20T08:53:46;19.10;;;3.50;;
62951;SDS011;52163;52.212;-1.002;2022-08-20T08:56:19;14.40;;;3.80;;
62951;SDS011;52163;52.212;-1.002;2022-08-20T08:58:47;14.30;;;4.90;;
62951;SDS011;52163;52.212;-1.002;2022-08-20T09:01:15;18.30;;;4.60;;
62951;SDS011;52163;52.212;-1.002;2022-08-20T09:03:44;22.70;;;6.20;;
62951;SDS011;52163;52.212;-1.002;2022-08-20T09:06:13;24.40;;;9.40;;
62951;SDS011;52163;52.212;-1.002;2022-08-20T09:08:44;21.30;;;7.10;;
62951;SDS011;52163;52.212;-1.002;2022-08-20T09:11:14;24.70;;;9.40;;
62951;SDS011;52163;52.212;-1.002;2022-08-20T09:13:41;19.80;;;7.10;;
62951;SDS011;52163;52.212;-1.002;2022-08-20T09:16:07;17.70;;;4.80;;
62951;SDS011;52163;52.212;-1.002;2022-08-20T09:18:35;21.20;;;4.00;;
62951;SDS011;52163;52.212;-1.002;2022-08-20T09:21:04;20.20;;;4.60;;
62951;SDS011;52163;52.212;-1.002;2022-08-20T09:23:30;15.00;;;4.50;;
62951;SDS011;52163;52.212;-1.002;2022-08-20T09:25:56;15.10;;;3.60;;
62951;SDS011;52163;52.212;-1.002;2022-08-20T09:28:22;21.50;;;6.80;;
62951;SDS011;52163;52.212;-1.002;2022-08-20T09:30:47;13.60;;;4.20;;
62951;SDS011;52163;52.212;-1.002;2022-08-20T09:33:12;9.90;;;3.40;;
62951;SDS011;52163;52.212;-1.002;2022-08-20T09:35:38;17.30;;;4.30;;
62951;SDS011;52163;52.212;-1.002;2022-08-20T09:38:05;19.00;;;4.70;;
62951;SDS011;52163;52.212;-1.002;2022-08-20T09:40:31;14.90;;;4.00;;
62951;SDS011;52163;52.212;-1.002;2022-08-20T09:42:57;13.90;;;4.10;;
62951;SDS011;52163;52.212;-1.002;2022-08-20T09:45:22;14.30;;;3.00;;
62951;SDS011;52163;52.212;-1.002;2022-08-20T09:47:48;11.90;;;3.50;;
62951;SDS011;52163;52.212;-1.002;2022-08-20T09:50:13;15.90;;;3.50;;
62951;SDS011;52163;52.212;-1.002;2022-08-20T09:52:43;10.00;;;3.10;;
62951;SDS011;52163;52.212;-1.002;2022-08-20T09:55:25;11.70;;;2.80;;
62951;SDS011;52163;52.212;-1.002;2022-08-20T09:57:56;13.60;;;3.90;;
62951;SDS011;52163;52.212;-1.002;2022-08-20T10:00:23;13.00;;;2.90;;
62951;SDS011;52163;52.212;-1.002;2022-08-20T10:02:49;10.90;;;3.00;;
62951;SDS011;52163;52.212;-1.002;2022-08-20T10:05:14;8.20;;;2.40;;
62951;SDS011;52163;52.212;-1.002;2022-08-20T10:07:40;14.30;;;3.20;;
62951;SDS011;52163;52.212;-1.002;2022-08-20T10:10:07;11.40;;;2.70;;
62951;SDS011;52163;52.212;-1.002;2022-08-20T10:12:34;8.00;;;2.30;;
62951;SDS011;52163;52.212;-1.002;2022-08-20T10:15:00;7.80;;;2.30;;
62951;SDS011;52163;52.212;-1.002;2022-08-20T10:17:25;7.90;;;2.80;;
62951;SDS011;52163;52.212;-1.002;2022-08-20T10:19:51;12.90;;;2.70;;
62951;SDS011;52163;52.212;-1.002;2022-08-20T10:22:16;10.30;;;2.50;;
62951;SDS011;52163;52.212;-1.002;2022-08-20T10:24:41;13.00;;;2.70;;
62951;SDS011;52163;52.212;-1.002;2022-08-20T10:27:07;12.00;;;2.40;;
62951;SDS011;52163;52.212;-1.002;2022-08-20T10:29:33;10.20;;;2.60;;
62951;SDS011;52163;52.212;-1.002;2022-08-20T10:32:07;13.50;;;2.60;;
62951;SDS011;52163;52.212;-1.002;2022-08-20T10:34:38;5.70;;;2.10;;
62951;SDS011;52163;52.212;-1.002;2022-08-20T10:37:05;12.70;;;2.40;;
62951;SDS011;52163;52.212;-1.002;2022-08-20T10:39:31;7.80;;;2.20;;
62951;SDS011;52163;52.212;-1.002;2022-08-20T10:41:57;10.10;;;2.20;;
62951;SDS011;52163;52.212;-1.002;2022-08-20T10:44:23;12.80;;;2.70;;
62951;SDS011;52163;52.212;-1.002;2022-08-20T10:46:48;9.00;;;2.10;;
62951;SDS011;52163;52.212;-1.002;2022-08-20T10:49:13;12.40;;;2.60;;
62951;SDS011;52163;52.212;-1.002;2022-08-20T10:51:39;11.00;;;2.40;;
62951;SDS011;52163;52.212;-1.002;2022-08-20T10:54:04;7.20;;;2.00;;
62951;SDS011;52163;52.212;-1.002;2022-08-20T10:56:30;10.10;;;3.10;;
62951;SDS011;52163;52.212;-1.002;2022-08-20T10:58:55;12.40;;;3.60;;
62951;SDS011;52163;52.212;-1.002;2022-08-20T11:01:23;11.70;;;3.20;;
62951;SDS011;52163;52.212;-1.002;2022-08-20T11:03:48;13.60;;;2.70;;
62951;SDS011;52163;52.212;-1.002;2022-08-20T11:06:14;7.70;;;2.40;;
62951;SDS011;52163;52.212;-1.002;2022-08-20T11:08:39;8.60;;;2.40;;
62951;SDS011;52163;52.212;-1.002;2022-08-20T11:11:05;8.30;;;2.60;;
62951;SDS011;52163;52.212;-1.002;2022-08-20T11:13:31;12.20;;;3.40;;
62951;SDS011;52163;52.212;-1.002;2022-08-20T11:15:57;9.10;;;2.40;;
62951;SDS011;52163;52.212;-1.002;2022-08-20T11:18:22;10.60;;;2.90;;
62951;SDS011;52163;52.212;-1.002;2022-08-20T11:20:48;8.20;;;2.80;;
62951;SDS011;52163;52.212;-1.002;2022-08-20T11:23:13;7.10;;;2.30;;
62951;SDS011;52163;52.212;-1.002;2022-08-20T11:25:39;7.50;;;3.20;;
62951;SDS011;52163;52.212;-1.002;2022-08-20T11:28:04;10.40;;;3.70;;
62951;SDS011;52163;52.212;-1.002;2022-08-20T11:30:31;10.10;;;3.40;;
62951;SDS011;52163;52.212;-1.002;2022-08-20T11:32:59;18.10;;;8.00;;
62951;SDS011;52163;52.212;-1.002;2022-08-20T11:35:26;15.60;;;4.80;;
62951;SDS011;52163;52.212;-1.002;2022-08-20T11:37:53;13.30;;;6.10;;
62951;SDS011;52163;52.212;-1.002;2022-08-20T11:40:20;12.40;;;5.00;;
62951;SDS011;52163;52.212;-1.002;2022-08-20T11:42:46;12.30;;;3.90;;
62951;SDS011;52163;52.212;-1.002;2022-08-20T11:45:12;13.40;;;5.60;;
62951;SDS011;52163;52.212;-1.002;2022-08-20T11:47:38;10.00;;;5.00;;
62951;SDS011;52163;52.212;-1.002;2022-08-20T11:50:06;14.10;;;6.00;;
62951;SDS011;52163;52.212;-1.002;2022-08-20T11:52:34;9.60;;;3.10;;
62951;SDS011;52163;52.212;-1.002;2022-08-20T11:55:03;14.90;;;7.70;;
62951;SDS011;52163;52.212;-1.002;2022-08-20T11:57:32;11.30;;;5.20;;
62951;SDS011;52163;52.212;-1.002;2022-08-20T12:00:00;14.30;;;4.20;;
62951;SDS011;52163;52.212;-1.002;2022-08-20T12:02:28;19.50;;;6.70;;
62951;SDS011;52163;52.212;-1.002;2022-08-20T12:04:53;21.10;;;9.30;;
62951;SDS011;52163;52.212;-1.002;2022-08-20T12:07:21;35.50;;;12.90;;
62951;SDS011;52163;52.212;-1.002;2022-08-20T12:09:48;26.80;;;12.60;;
62951;SDS011;52163;52.212;-1.002;2022-08-20T12:12:14;15.00;;;7.50;;
62951;SDS011;52163;52.212;-1.002;2022-08-20T12:14:40;14.90;;;6.80;;
62951;SDS011;52163;52.212;-1.002;2022-08-20T12:17:06;17.40;;;7.60;;
62951;SDS011;52163;52.212;-1.002;2022-08-20T12:19:35;34.60;;;14.70;;
62951;SDS011;52163;52.212;-1.002;2022-08-20T12:22:04;12.30;;;3.90;;
62951;SDS011;52163;52.212;-1.002;2022-08-20T12:24:32;16.40;;;8.20;;
62951;SDS011;52163;52.212;-1.002;2022-08-20T12:29:55;6.50;;;3.60;;
62951;SDS011;52163;52.212;-1.002;2022-08-20T12:32:22;12.00;;;4.70;;
62951;SDS011;52163;52.212;-1.002;2022-08-20T12:34:51;14.30;;;5.90;;
62951;SDS011;52163;52.212;-1.002;2022-08-20T12:37:18;15.30;;;7.50;;
62951;SDS011;52163;52.212;-1.002;2022-08-20T12:39:47;24.40;;;14.20;;
62951;SDS011;52163;52.212;-1.002;2022-08-20T12:42:16;19.10;;;10.70;;
62951;SDS011;52163;52.212;-1.002;2022-08-20T12:44:42;10.60;;;6.20;;
62951;SDS011;52163;52.212;-1.002;2022-08-20T12:49:40;9.10;;;2.90;;
62951;SDS011;52163;52.212;-1.002;2022-08-20T12:52:07;9.20;;;3.30;;
62951;SDS011;52163;52.212;-1.002;2022-08-20T12:54:33;8.60;;;3.40;;
62951;SDS011;52163;52.212;-1.002;2022-08-20T12:56:59;6.60;;;3.30;;
62951;SDS011;52163;52.212;-1.002;2022-08-20T12:59:25;9.10;;;3.90;;
62951;SDS011;52163;52.212;-1.002;2022-08-20T13:01:52;10.00;;;3.80;;
62951;SDS011;52163;52.212;-1.002;2022-08-20T13:04:18;6.30;;;2.70;;
62951;SDS011;52163;52.212;-1.002;2022-08-20T13:06:45;11.10;;;4.60;;
62951;SDS011;52163;52.212;-1.002;2022-08-20T13:09:11;8.80;;;3.80;;
62951;SDS011;52163;52.212;-1.002;2022-08-20T13:11:37;9.00;;;3.30;;
62951;SDS011;52163;52.212;-1.002;2022-08-20T13:14:03;9.80;;;4.00;;
62951;SDS011;52163;52.212;-1.002;2022-08-20T13:16:28;7.70;;;3.00;;
62951;SDS011;52163;52.212;-1.002;2022-08-20T13:18:54;9.60;;;3.00;;
62951;SDS011;52163;52.212;-1.002;2022-08-20T13:21:20;7.10;;;2.90;;
62951;SDS011;52163;52.212;-1.002;2022-08-20T13:23:45;6.20;;;3.00;;
62951;SDS011;52163;52.212;-1.002;2022-08-20T13:26:12;6.90;;;2.60;;
62951;SDS011;52163;52.212;-1.002;2022-08-20T13:28:37;9.90;;;2.70;;
62951;SDS011;52163;52.212;-1.002;2022-08-20T13:31:03;7.70;;;2.60;;
62951;SDS011;52163;52.212;-1.002;2022-08-20T13:33:28;6.70;;;2.00;;
62951;SDS011;52163;52.212;-1.002;2022-08-20T13:35:54;5.80;;;2.30;;
62951;SDS011;52163;52.212;-1.002;2022-08-20T13:38:21;6.70;;;2.70;;
62951;SDS011;52163;52.212;-1.002;2022-08-20T13:40:47;7.90;;;3.10;;
62951;SDS011;52163;52.212;-1.002;2022-08-20T13:43:12;6.80;;;2.30;;
62951;SDS011;52163;52.212;-1.002;2022-08-20T13:45:38;7.80;;;2.00;;
62951;SDS011;52163;52.212;-1.002;2022-08-20T13:48:04;8.20;;;2.40;;
62951;SDS011;52163;52.212;-1.002;2022-08-20T13:50:32;8.10;;;2.20;;
62951;SDS011;52163;52.212;-1.002;2022-08-20T13:52:58;10.30;;;3.30;;
62951;SDS011;52163;52.212;-1.002;2022-08-20T13:55:25;12.90;;;7.00;;
62951;SDS011;52163;52.212;-1.002;2022-08-20T13:57:52;10.50;;;4.30;;
62951;SDS011;52163;52.212;-1.002;2022-08-20T14:00:21;8.50;;;3.60;;
62951;SDS011;52163;52.212;-1.002;2022-08-20T14:02:52;8.60;;;3.50;;
62951;SDS011;52163;52.212;-1.002;2022-08-20T14:05:18;12.00;;;4.90;;
62951;SDS011;52163;52.212;-1.002;2022-08-20T14:07:43;10.30;;;3.80;;
62951;SDS011;52163;52.212;-1.002;2022-08-20T14:10:11;10.40;;;4.60;;
62951;SDS011;52163;52.212;-1.002;2022-08-20T14:12:39;12.40;;;4.30;;
62951;SDS011;52163;52.212;-1.002;2022-08-20T14:15:05;11.60;;;3.70;;
62951;SDS011;52163;52.212;-1.002;2022-08-20T14:17:40;11.10;;;3.90;;
62951;SDS011;52163;52.212;-1.002;2022-08-20T14:20:12;6.80;;;2.80;;
62951;SDS011;52163;52.212;-1.002;2022-08-20T14:22:40;10.10;;;3.70;;
62951;SDS011;52163;52.212;-1.002;2022-08-20T14:25:07;10.80;;;3.70;;
62951;SDS011;52163;52.212;-1.002;2022-08-20T14:27:34;9.30;;;3.90;;
62951;SDS011;52163;52.212;-1.002;2022-08-20T14:30:01;6.70;;;3.30;;
62951;SDS011;52163;52.212;-1.002;2022-08-20T14:32:32;10.50;;;4.50;;
62951;SDS011;52163;52.212;-1.002;2022-08-20T14:34:57;9.80;;;3.40;;
62951;SDS011;52163;52.212;-1.002;2022-08-20T14:37:24;6.70;;;3.40;;
62951;SDS011;52163;52.212;-1.002;2022-08-20T14:39:54;12.20;;;4.60;;